createdAt,value
2016-01-14T00:00:05.687Z,95.58
2016-01-14T00:00:17.140Z,95.58
2016-01-14T00:00:28.609Z,95.21
2016-01-14T00:00:40.062Z,95.21
2016-01-14T00:00:51.531Z,95.58
2016-01-14T00:01:03.018Z,95.58
2016-01-14T00:01:14.487Z,95.39
2016-01-14T00:01:25.956Z,95.58
2016-01-14T00:01:37.393Z,95.58
2016-01-14T00:01:48.862Z,95.3
2016-01-14T00:02:00.318Z,95.3
2016-01-14T00:02:11.771Z,95.21
2016-01-14T00:02:23.240Z,95.3
2016-01-14T00:02:34.693Z,95.58
2016-01-14T00:02:46.162Z,95.58
2016-01-14T00:02:57.630Z,95.58
2016-01-14T00:03:08.398Z,95.21
2016-01-14T00:03:19.882Z,95.58
2016-01-14T00:03:31.351Z,95.3
2016-01-14T00:03:42.836Z,95.21
2016-01-14T00:03:54.320Z,95.3
2016-01-14T00:04:05.775Z,95.3
2016-01-14T00:04:17.228Z,95.3
2016-01-14T00:04:28.697Z,95.3
2016-01-14T00:04:40.166Z,95.3
2016-01-14T00:04:51.603Z,95.3
2016-01-14T00:05:03.091Z,95.3
2016-01-14T00:05:14.559Z,95.3
2016-01-14T00:05:26.012Z,95.3
2016-01-14T00:05:37.497Z,95.3
2016-01-14T00:05:48.981Z,95.21
2016-01-14T00:06:00.497Z,95.21
2016-01-14T00:06:11.984Z,95.3
2016-01-14T00:06:23.312Z,95.3
2016-01-14T00:06:34.781Z,95.21
2016-01-14T00:06:46.234Z,95.3
2016-01-14T00:06:57.687Z,95.3
2016-01-14T00:07:09.143Z,95.3
2016-01-14T00:07:20.612Z,95.21
2016-01-14T00:07:32.081Z,95.3
2016-01-14T00:07:43.565Z,95.3
2016-01-14T00:07:55.034Z,95.11
2016-01-14T00:08:06.520Z,95.21
2016-01-14T00:08:17.989Z,95.39
2016-01-14T00:08:29.458Z,95.3
2016-01-14T00:08:40.942Z,95.3
2016-01-14T00:08:52.395Z,95.21
2016-01-14T00:09:03.868Z,95.21
2016-01-14T00:09:15.353Z,95.21
2016-01-14T00:09:26.806Z,95.39
2016-01-14T00:09:38.274Z,95.21
2016-01-14T00:09:49.728Z,95.3
2016-01-14T00:10:01.196Z,95.3
2016-01-14T00:10:12.668Z,95.3
2016-01-14T00:10:24.152Z,95.3
2016-01-14T00:10:35.637Z,95.11
2016-01-14T00:10:47.106Z,95.21
2016-01-14T00:10:58.606Z,95.39
2016-01-14T00:11:10.093Z,95.39
2016-01-14T00:11:21.562Z,95.39
2016-01-14T00:11:33.030Z,95.21
2016-01-14T00:11:44.484Z,95.21
2016-01-14T00:11:55.937Z,95.3
2016-01-14T00:12:07.407Z,95.3
2016-01-14T00:12:18.845Z,95.21
2016-01-14T00:12:30.314Z,95.3
2016-01-14T00:12:41.782Z,95.21
2016-01-14T00:12:53.251Z,95.39
2016-01-14T00:13:04.754Z,95.11
2016-01-14T00:13:16.223Z,95.11
2016-01-14T00:13:27.692Z,95.3
2016-01-14T00:13:39.145Z,95.21
2016-01-14T00:13:50.582Z,95.3
2016-01-14T00:14:02.051Z,95.3
2016-01-14T00:14:13.507Z,95.58
2016-01-14T00:14:24.976Z,95.3
2016-01-14T00:14:36.460Z,95.3
2016-01-14T00:14:47.913Z,95.21
2016-01-14T00:14:59.413Z,95.3
2016-01-14T00:15:10.900Z,95.3
2016-01-14T00:15:22.353Z,95.3
2016-01-14T00:15:33.853Z,95.58
2016-01-14T00:15:45.337Z,95.3
2016-01-14T00:15:56.790Z,95.58
2016-01-14T00:16:08.247Z,95.49
2016-01-14T00:16:19.700Z,95.21
2016-01-14T00:16:31.168Z,95.21
2016-01-14T00:16:42.622Z,95.21
2016-01-14T00:16:54.090Z,95.58
2016-01-14T00:17:04.840Z,95.21
2016-01-14T00:17:16.311Z,95.3
2016-01-14T00:17:27.780Z,95.58
2016-01-14T00:17:39.264Z,95.58
2016-01-14T00:17:50.749Z,95.58
2016-01-14T00:18:02.233Z,95.39
2016-01-14T00:18:13.720Z,95.58
2016-01-14T00:18:25.189Z,95.11
2016-01-14T00:18:36.642Z,95.3
2016-01-14T00:18:48.111Z,95.49
2016-01-14T00:18:59.564Z,95.39
2016-01-14T00:19:10.301Z,95.39
2016-01-14T00:19:21.770Z,95.39
2016-01-14T00:19:33.239Z,95.3
2016-01-14T00:19:44.708Z,95.39
2016-01-14T00:19:56.192Z,95.21
2016-01-14T00:20:07.692Z,95.39
2016-01-14T00:20:19.179Z,95.39
2016-01-14T00:20:30.664Z,95.3
2016-01-14T00:20:42.117Z,95.39
2016-01-14T00:20:53.586Z,95.11
2016-01-14T00:21:05.039Z,95.3
2016-01-14T00:21:16.495Z,95.3
2016-01-14T00:21:27.979Z,95.3
2016-01-14T00:21:39.448Z,95.3
2016-01-14T00:21:50.901Z,95.39
2016-01-14T00:22:02.370Z,95.39
2016-01-14T00:22:13.857Z,95.3
2016-01-14T00:22:25.326Z,95.3
2016-01-14T00:22:36.810Z,95.3
2016-01-14T00:22:48.295Z,95.3
2016-01-14T00:22:59.748Z,95.3
2016-01-14T00:23:11.219Z,95.3
2016-01-14T00:23:22.672Z,95.3
2016-01-14T00:23:34.141Z,95.3
2016-01-14T00:23:45.625Z,95.39
2016-01-14T00:23:57.078Z,95.3
2016-01-14T00:24:08.547Z,95.3
2016-01-14T00:24:20.019Z,95.3
2016-01-14T00:24:31.487Z,95.39
2016-01-14T00:24:42.956Z,95.39
2016-01-14T00:24:54.440Z,95.3
2016-01-14T00:25:05.909Z,95.21
2016-01-14T00:25:17.412Z,95.3
2016-01-14T00:25:28.912Z,95.39
2016-01-14T00:25:40.365Z,95.49
2016-01-14T00:25:51.834Z,95.21
2016-01-14T00:26:03.303Z,95.3
2016-01-14T00:26:14.774Z,95.3
2016-01-14T00:26:26.227Z,95.39
2016-01-14T00:26:37.680Z,95.11
2016-01-14T00:26:49.133Z,95.3
2016-01-14T00:27:00.602Z,95.3
2016-01-14T00:27:12.089Z,95.3
2016-01-14T00:27:23.573Z,95.39
2016-01-14T00:27:35.073Z,95.02
2016-01-14T00:27:46.386Z,95.3
2016-01-14T00:27:57.886Z,95.49
2016-01-14T00:28:09.339Z,95.21
2016-01-14T00:28:20.811Z,95.21
2016-01-14T00:28:32.264Z,95.11
2016-01-14T00:28:43.733Z,95.3
2016-01-14T00:28:55.186Z,95.11
2016-01-14T00:29:06.639Z,95.21
2016-01-14T00:29:18.125Z,95.3
2016-01-14T00:29:29.578Z,95.39
2016-01-14T00:29:41.063Z,95.39
2016-01-14T00:29:52.547Z,95.39
2016-01-14T00:30:04.032Z,95.21
2016-01-14T00:30:15.519Z,95.3
2016-01-14T00:30:27.003Z,95.21
2016-01-14T00:30:38.441Z,95.39
2016-01-14T00:30:49.910Z,95.11
2016-01-14T00:31:01.363Z,95.39
2016-01-14T00:31:12.834Z,95.3
2016-01-14T00:31:24.303Z,95.3
2016-01-14T00:31:35.756Z,95.3
2016-01-14T00:31:47.225Z,95.39
2016-01-14T00:31:58.694Z,95.3
2016-01-14T00:32:10.163Z,95.3
2016-01-14T00:32:21.634Z,95.3
2016-01-14T00:32:33.119Z,95.3
2016-01-14T00:32:44.603Z,95.58
2016-01-14T00:32:56.103Z,95.39
2016-01-14T00:33:07.572Z,95.39
2016-01-14T00:33:19.027Z,95.58
2016-01-14T00:33:30.480Z,95.21
2016-01-14T00:33:41.918Z,95.21
2016-01-14T00:33:53.386Z,95.3
2016-01-14T00:34:04.839Z,95.3
2016-01-14T00:34:16.310Z,95.3
2016-01-14T00:34:27.763Z,95.3
2016-01-14T00:34:39.232Z,95.3
2016-01-14T00:34:50.716Z,95.3
2016-01-14T00:35:02.185Z,95.3
2016-01-14T00:35:13.674Z,95.3
2016-01-14T00:35:25.142Z,95.21
2016-01-14T00:35:36.611Z,95.11
2016-01-14T00:35:48.064Z,95.21
2016-01-14T00:35:59.517Z,95.21
2016-01-14T00:36:10.986Z,95.21
2016-01-14T00:36:22.442Z,95.3
2016-01-14T00:36:33.895Z,95.21
2016-01-14T00:36:45.364Z,95.21
2016-01-14T00:36:56.833Z,95.39
2016-01-14T00:37:08.302Z,95.44
2016-01-14T00:37:19.788Z,95.49
2016-01-14T00:37:31.257Z,95.3
2016-01-14T00:37:42.741Z,95.3
2016-01-14T00:37:54.225Z,95.21
2016-01-14T00:38:05.679Z,95.3
2016-01-14T00:38:17.149Z,95.11
2016-01-14T00:38:28.602Z,95.25
2016-01-14T00:38:40.071Z,95.35
2016-01-14T00:38:51.524Z,95.35
2016-01-14T00:39:02.977Z,95.35
2016-01-14T00:39:14.449Z,95.3
2016-01-14T00:39:25.918Z,95.58
2016-01-14T00:39:37.387Z,95.58
2016-01-14T00:39:48.887Z,95.63
2016-01-14T00:40:00.371Z,95.58
2016-01-14T00:40:11.855Z,95.58
2016-01-14T00:40:23.171Z,95.49
2016-01-14T00:40:34.640Z,95.63
2016-01-14T00:40:46.093Z,95.68
2016-01-14T00:40:57.546Z,95.73
2016-01-14T00:41:08.999Z,95.63
2016-01-14T00:41:20.455Z,95.07
2016-01-14T00:41:31.908Z,95.63
2016-01-14T00:41:43.377Z,95.63
2016-01-14T00:41:54.846Z,95.63
2016-01-14T00:42:06.330Z,95.58
2016-01-14T00:42:17.817Z,95.54
2016-01-14T00:42:29.301Z,95.73
2016-01-14T00:42:40.801Z,95.73
2016-01-14T00:42:52.285Z,95.68
2016-01-14T00:43:03.738Z,95.82
2016-01-14T00:43:15.195Z,95.82
2016-01-14T00:43:26.648Z,95.54
2016-01-14T00:43:38.116Z,95.73
2016-01-14T00:43:49.585Z,95.21
2016-01-14T00:44:00.335Z,95.63
2016-01-14T00:44:11.804Z,95.73
2016-01-14T00:44:23.260Z,95.54
2016-01-14T00:44:34.729Z,95.73
2016-01-14T00:44:46.244Z,95.82
2016-01-14T00:44:57.713Z,95.73
2016-01-14T00:45:09.229Z,95.73
2016-01-14T00:45:20.701Z,95.73
2016-01-14T00:45:32.154Z,95.91
2016-01-14T00:45:43.622Z,95.82
2016-01-14T00:45:55.060Z,95.63
2016-01-14T00:46:06.513Z,95.63
2016-01-14T00:46:17.985Z,95.63
2016-01-14T00:46:29.454Z,95.91
2016-01-14T00:46:40.907Z,95.63
2016-01-14T00:46:52.391Z,95.35
2016-01-14T00:47:03.875Z,95.63
2016-01-14T00:47:15.360Z,95.63
2016-01-14T00:47:26.846Z,96.01
2016-01-14T00:47:38.331Z,95.35
2016-01-14T00:47:49.815Z,95.35
2016-01-14T00:48:01.268Z,95.35
2016-01-14T00:48:12.706Z,95.73
2016-01-14T00:48:24.177Z,95.63
2016-01-14T00:48:35.646Z,95.73
2016-01-14T00:48:47.099Z,95.73
2016-01-14T00:48:58.584Z,95.73
2016-01-14T00:49:10.068Z,95.91
2016-01-14T00:49:21.524Z,95.73
2016-01-14T00:49:33.008Z,95.82
2016-01-14T00:49:44.477Z,95.73
2016-01-14T00:49:55.962Z,95.73
2016-01-14T00:50:07.430Z,95.91
2016-01-14T00:50:18.917Z,95.73
2016-01-14T00:50:30.401Z,95.82
2016-01-14T00:50:41.854Z,95.91
2016-01-14T00:50:53.307Z,95.91
2016-01-14T00:51:04.760Z,95.91
2016-01-14T00:51:16.214Z,96.01
2016-01-14T00:51:27.685Z,95.91
2016-01-14T00:51:39.154Z,96.01
2016-01-14T00:51:50.623Z,96.01
2016-01-14T00:52:02.123Z,96.01
2016-01-14T00:52:13.592Z,95.73
2016-01-14T00:52:25.078Z,96.01
2016-01-14T00:52:36.562Z,96.01
2016-01-14T00:52:48.015Z,95.91
2016-01-14T00:52:59.469Z,95.54
2016-01-14T00:53:10.937Z,95.82
2016-01-14T00:53:22.394Z,95.63
2016-01-14T00:53:33.848Z,95.63
2016-01-14T00:53:45.316Z,95.82
2016-01-14T00:53:56.801Z,95.63
2016-01-14T00:54:08.269Z,95.91
2016-01-14T00:54:19.756Z,95.82
2016-01-14T00:54:31.240Z,95.63
2016-01-14T00:54:42.725Z,95.63
2016-01-14T00:54:54.209Z,95.63
2016-01-14T00:55:05.662Z,95.63
2016-01-14T00:55:17.131Z,95.63
2016-01-14T00:55:28.587Z,95.63
2016-01-14T00:55:40.040Z,95.82
2016-01-14T00:55:51.509Z,95.73
2016-01-14T00:56:02.962Z,95.73
2016-01-14T00:56:14.431Z,95.63
2016-01-14T00:56:25.901Z,95.73
2016-01-14T00:56:37.355Z,95.54
2016-01-14T00:56:48.839Z,95.63
2016-01-14T00:57:00.323Z,95.73
2016-01-14T00:57:11.808Z,95.44
2016-01-14T00:57:23.311Z,95.63
2016-01-14T00:57:34.795Z,95.63
2016-01-14T00:57:46.264Z,95.63
2016-01-14T00:57:57.701Z,95.44
2016-01-14T00:58:09.170Z,95.63
2016-01-14T00:58:20.625Z,95.63
2016-01-14T00:58:32.078Z,95.82
2016-01-14T00:58:43.547Z,95.63
2016-01-14T00:58:55.016Z,95.63
2016-01-14T00:59:06.500Z,95.54
2016-01-14T00:59:17.985Z,95.63
2016-01-14T00:59:29.457Z,95.63
2016-01-14T00:59:40.926Z,95.54
2016-01-14T00:59:52.379Z,95.73
2016-01-14T01:00:03.832Z,95.63
2016-01-14T01:00:15.285Z,95.73
2016-01-14T01:00:26.741Z,95.63
2016-01-14T01:00:38.209Z,95.82
2016-01-14T01:00:49.678Z,95.73
2016-01-14T01:01:01.147Z,95.91
2016-01-14T01:01:11.959Z,95.91
2016-01-14T01:01:23.447Z,95.63
2016-01-14T01:01:34.931Z,95.63
2016-01-14T01:01:46.415Z,95.54
2016-01-14T01:01:57.869Z,95.73
2016-01-14T01:02:09.194Z,95.82
2016-01-14T01:02:20.647Z,95.91
2016-01-14T01:02:31.400Z,95.91
2016-01-14T01:02:42.869Z,95.82
2016-01-14T01:02:54.337Z,95.63
2016-01-14T01:03:05.806Z,95.82
2016-01-14T01:03:17.259Z,95.73
2016-01-14T01:03:28.714Z,95.82
2016-01-14T01:03:40.214Z,95.73
2016-01-14T01:03:51.683Z,95.91
2016-01-14T01:04:03.167Z,95.73
2016-01-14T01:04:14.667Z,95.82
2016-01-14T01:04:26.124Z,95.73
2016-01-14T01:04:37.436Z,95.91
2016-01-14T01:04:48.733Z,95.63
2016-01-14T01:05:00.186Z,95.91
2016-01-14T01:05:11.639Z,95.63
2016-01-14T01:05:23.111Z,95.73
2016-01-14T01:05:34.564Z,95.63
2016-01-14T01:05:46.017Z,95.91
2016-01-14T01:05:57.502Z,95.91
2016-01-14T01:06:08.970Z,95.63
2016-01-14T01:06:20.455Z,95.63
2016-01-14T01:06:31.941Z,95.82
2016-01-14T01:06:43.269Z,95.82
2016-01-14T01:06:54.722Z,95.91
2016-01-14T01:07:06.160Z,95.91
2016-01-14T01:07:17.613Z,95.91
2016-01-14T01:07:29.085Z,95.82
2016-01-14T01:07:40.538Z,95.91
2016-01-14T01:07:52.022Z,95.63
2016-01-14T01:08:03.507Z,95.63
2016-01-14T01:08:14.960Z,95.63
2016-01-14T01:08:26.463Z,95.91
2016-01-14T01:08:37.931Z,95.82
2016-01-14T01:08:49.400Z,95.91
2016-01-14T01:09:00.869Z,95.91
2016-01-14T01:09:12.322Z,95.91
2016-01-14T01:09:23.637Z,95.63
2016-01-14T01:09:35.105Z,95.54
2016-01-14T01:09:46.558Z,95.73
2016-01-14T01:09:58.012Z,95.91
2016-01-14T01:10:09.496Z,95.73
2016-01-14T01:10:20.949Z,95.63
2016-01-14T01:10:32.437Z,95.63
2016-01-14T01:10:43.922Z,95.54
2016-01-14T01:10:54.703Z,95.91
2016-01-14T01:11:06.047Z,95.73
2016-01-14T01:11:17.500Z,95.91
2016-01-14T01:11:28.955Z,95.63
2016-01-14T01:11:40.408Z,95.82
2016-01-14T01:11:51.893Z,95.91
2016-01-14T01:12:03.346Z,95.44
2016-01-14T01:12:14.799Z,95.73
2016-01-14T01:12:26.271Z,95.91
2016-01-14T01:12:37.724Z,95.63
2016-01-14T01:12:49.192Z,95.82
2016-01-14T01:13:00.661Z,95.54
2016-01-14T01:13:12.161Z,95.54
2016-01-14T01:13:23.661Z,95.44
2016-01-14T01:13:35.148Z,95.54
2016-01-14T01:13:46.616Z,95.44
2016-01-14T01:13:58.054Z,95.54
2016-01-14T01:14:09.523Z,95.82
2016-01-14T01:14:20.976Z,95.73
2016-01-14T01:14:32.448Z,95.73
2016-01-14T01:14:43.902Z,95.44
2016-01-14T01:14:55.355Z,95.63
2016-01-14T01:15:06.823Z,95.54
2016-01-14T01:15:18.308Z,95.63
2016-01-14T01:15:29.793Z,95.63
2016-01-14T01:15:41.293Z,95.63
2016-01-14T01:15:52.778Z,95.63
2016-01-14T01:16:04.278Z,95.44
2016-01-14T01:16:15.731Z,95.63
2016-01-14T01:16:27.172Z,95.63
2016-01-14T01:16:38.641Z,95.63
2016-01-14T01:16:49.391Z,95.63
2016-01-14T01:17:00.844Z,95.82
2016-01-14T01:17:12.297Z,95.82
2016-01-14T01:17:23.766Z,95.63
2016-01-14T01:17:35.237Z,95.63
2016-01-14T01:17:46.737Z,95.63
2016-01-14T01:17:58.221Z,96.01
2016-01-14T01:18:09.549Z,95.73
2016-01-14T01:18:21.049Z,95.82
2016-01-14T01:18:32.537Z,95.82
2016-01-14T01:18:43.990Z,95.82
2016-01-14T01:18:55.302Z,96.01
2016-01-14T01:19:06.740Z,95.82
2016-01-14T01:19:18.208Z,95.82
2016-01-14T01:19:29.680Z,95.63
2016-01-14T01:19:41.133Z,95.82
2016-01-14T01:19:52.602Z,95.82
2016-01-14T01:20:04.071Z,95.91
2016-01-14T01:20:15.555Z,96.01
2016-01-14T01:20:27.040Z,95.91
2016-01-14T01:20:38.542Z,96.01
2016-01-14T01:20:50.010Z,96.01
2016-01-14T01:21:01.479Z,95.82
2016-01-14T01:21:12.932Z,96.01
2016-01-14T01:21:24.401Z,96.01
2016-01-14T01:22:07.982Z,96.01
2016-01-14T01:22:19.357Z,96.01
2016-01-14T01:22:30.829Z,95.91
2016-01-14T01:22:42.298Z,95.82
2016-01-14T01:22:53.751Z,96.01
2016-01-14T01:23:05.235Z,95.91
2016-01-14T01:23:16.719Z,95.91
2016-01-14T01:23:28.204Z,95.82
2016-01-14T01:23:39.738Z,95.91
2016-01-14T01:23:51.238Z,96.01
2016-01-14T01:24:02.691Z,95.91
2016-01-14T01:24:14.160Z,95.91
2016-01-14T01:24:25.613Z,96.01
2016-01-14T01:24:37.068Z,96.01
2016-01-14T01:24:48.537Z,95.73
2016-01-14T01:25:00.006Z,96.01
2016-01-14T01:25:11.474Z,96.01
2016-01-14T01:25:22.959Z,95.91
2016-01-14T01:25:34.446Z,95.82
2016-01-14T01:25:45.931Z,95.82
2016-01-14T01:25:57.399Z,95.73
2016-01-14T01:26:08.868Z,96.01
2016-01-14T01:26:20.227Z,96.01
2016-01-14T01:26:31.683Z,95.82
2016-01-14T01:26:43.151Z,95.91
2016-01-14T01:26:54.620Z,95.91
2016-01-14T01:27:06.073Z,95.73
2016-01-14T01:27:17.526Z,95.91
2016-01-14T01:27:28.979Z,95.82
2016-01-14T01:27:40.451Z,95.73
2016-01-14T01:27:51.920Z,95.73
2016-01-14T01:28:03.404Z,95.91
2016-01-14T01:28:14.889Z,95.91
2016-01-14T01:28:26.389Z,96.01
2016-01-14T01:28:37.876Z,95.91
2016-01-14T01:28:49.376Z,95.73
2016-01-14T01:29:00.845Z,95.91
2016-01-14T01:29:12.282Z,96.01
2016-01-14T01:29:23.751Z,95.82
2016-01-14T01:29:35.206Z,95.91
2016-01-14T01:29:46.691Z,95.82
2016-01-14T01:29:58.144Z,96.01
2016-01-14T01:30:09.612Z,95.82
2016-01-14T01:30:21.081Z,95.73
2016-01-14T01:30:32.584Z,96.01
2016-01-14T01:30:44.069Z,95.73
2016-01-14T01:30:55.537Z,96.01
2016-01-14T01:31:07.037Z,95.91
2016-01-14T01:31:18.490Z,95.91
2016-01-14T01:31:29.928Z,95.73
2016-01-14T01:31:41.400Z,95.73
2016-01-14T01:31:52.837Z,95.73
2016-01-14T01:32:04.306Z,95.73
2016-01-14T01:32:15.775Z,95.73
2016-01-14T01:32:27.228Z,95.73
2016-01-14T01:32:38.715Z,95.91
2016-01-14T01:32:50.200Z,95.91
2016-01-14T01:33:01.668Z,95.73
2016-01-14T01:33:12.434Z,95.73
2016-01-14T01:33:23.215Z,95.73
2016-01-14T01:33:34.687Z,95.73
2016-01-14T01:33:46.156Z,95.91
2016-01-14T01:33:57.624Z,95.91
2016-01-14T01:34:09.093Z,95.44
2016-01-14T01:34:20.546Z,95.63
2016-01-14T01:34:31.999Z,95.73
2016-01-14T01:34:43.455Z,95.73
2016-01-14T01:34:54.923Z,95.63
2016-01-14T01:35:06.392Z,96.01
2016-01-14T01:35:17.908Z,96.01
2016-01-14T01:35:29.376Z,96.01
2016-01-14T01:35:40.864Z,95.35
2016-01-14T01:35:52.348Z,95.35
2016-01-14T01:36:03.833Z,95.35
2016-01-14T01:36:15.286Z,95.54
2016-01-14T01:36:26.754Z,96.01
2016-01-14T01:36:38.211Z,95.35
2016-01-14T01:36:49.648Z,95.35
2016-01-14T01:37:01.101Z,95.63
2016-01-14T01:37:12.570Z,95.63
2016-01-14T01:37:24.023Z,95.35
2016-01-14T01:37:35.509Z,95.73
2016-01-14T01:37:46.978Z,95.63
2016-01-14T01:37:58.447Z,95.73
2016-01-14T01:38:09.228Z,95.63
2016-01-14T01:38:20.681Z,95.73
2016-01-14T01:38:32.134Z,95.73
2016-01-14T01:38:43.591Z,95.73
2016-01-14T01:38:55.059Z,95.73
2016-01-14T01:39:06.512Z,95.73
2016-01-14T01:39:17.981Z,95.82
2016-01-14T01:39:29.434Z,95.58
2016-01-14T01:39:40.922Z,95.63
2016-01-14T01:39:52.406Z,95.54
2016-01-14T01:40:03.875Z,95.73
2016-01-14T01:40:15.406Z,95.73
2016-01-14T01:40:26.875Z,95.82
2016-01-14T01:40:38.346Z,95.73
2016-01-14T01:40:49.799Z,95.54
2016-01-14T01:41:01.252Z,95.63
2016-01-14T01:41:12.721Z,95.54
2016-01-14T01:41:24.205Z,95.63
2016-01-14T01:41:35.658Z,95.73
2016-01-14T01:41:47.130Z,95.73
2016-01-14T01:41:58.583Z,95.73
2016-01-14T01:42:10.052Z,95.73
2016-01-14T01:42:21.536Z,95.58
2016-01-14T01:42:33.020Z,95.73
2016-01-14T01:42:44.508Z,95.77
2016-01-14T01:42:55.977Z,95.58
2016-01-14T01:43:07.461Z,95.63
2016-01-14T01:43:18.914Z,95.63
2016-01-14T01:43:30.367Z,95.73
2016-01-14T01:43:41.839Z,95.73
2016-01-14T01:43:53.292Z,95.63
2016-01-14T01:44:04.745Z,95.73
2016-01-14T01:44:16.230Z,95.73
2016-01-14T01:44:27.683Z,95.68
2016-01-14T01:44:39.153Z,95.82
2016-01-14T01:44:50.638Z,95.25
2016-01-14T01:45:02.107Z,95.16
2016-01-14T01:45:13.607Z,95.73
2016-01-14T01:45:25.091Z,95.73
2016-01-14T01:45:35.872Z,95.73
2016-01-14T01:45:47.313Z,95.73
2016-01-14T01:45:58.766Z,95.73
2016-01-14T01:46:10.235Z,95.73
2016-01-14T01:46:21.688Z,95.63
2016-01-14T01:46:33.156Z,95.82
2016-01-14T01:46:44.644Z,95.82
2016-01-14T01:46:56.113Z,95.73
2016-01-14T01:47:07.597Z,95.73
2016-01-14T01:47:19.081Z,95.73
2016-01-14T01:47:30.550Z,95.73
2016-01-14T01:47:42.053Z,95.73
2016-01-14T01:47:53.537Z,95.82
2016-01-14T01:48:05.022Z,95.82
2016-01-14T01:48:16.475Z,95.73
2016-01-14T01:48:27.928Z,95.82
2016-01-14T01:48:39.397Z,95.73
2016-01-14T01:48:50.696Z,95.54
2016-01-14T01:49:02.180Z,95.63
2016-01-14T01:49:13.633Z,95.63
2016-01-14T01:49:25.102Z,95.82
2016-01-14T01:49:36.571Z,95.63
2016-01-14T01:49:48.074Z,95.73
2016-01-14T01:49:59.542Z,95.35
2016-01-14T01:50:10.996Z,95.73
2016-01-14T01:50:22.449Z,95.35
2016-01-14T01:50:33.933Z,95.63
2016-01-14T01:50:44.686Z,95.35
2016-01-14T01:50:56.139Z,95.63
2016-01-14T01:51:07.592Z,95.73
2016-01-14T01:51:19.061Z,95.73
2016-01-14T01:51:30.545Z,95.91
2016-01-14T01:51:42.014Z,96.01
2016-01-14T01:51:53.501Z,95.63
2016-01-14T01:52:05.001Z,95.63
2016-01-14T01:52:16.485Z,95.63
2016-01-14T01:52:27.985Z,95.63
2016-01-14T01:52:39.438Z,95.73
2016-01-14T01:52:50.894Z,95.35
2016-01-14T01:53:02.347Z,95.35
2016-01-14T01:53:13.816Z,95.73
2016-01-14T01:53:25.269Z,95.91
2016-01-14T01:53:36.754Z,95.63
2016-01-14T01:53:48.224Z,96.01
2016-01-14T01:53:59.677Z,95.35
2016-01-14T01:54:11.162Z,96.01
2016-01-14T01:54:22.646Z,95.73
2016-01-14T01:54:34.115Z,95.35
2016-01-14T01:54:45.618Z,96.01
2016-01-14T01:54:57.087Z,95.73
2016-01-14T01:55:08.540Z,95.63
2016-01-14T01:55:19.993Z,95.73
2016-01-14T01:55:31.462Z,95.35
2016-01-14T01:55:42.915Z,95.73
2016-01-14T01:55:54.402Z,95.35
2016-01-14T01:56:05.855Z,95.73
2016-01-14T01:56:17.324Z,95.63
2016-01-14T01:56:28.793Z,96.01
2016-01-14T01:56:40.277Z,95.73
2016-01-14T01:56:51.749Z,95.63
2016-01-14T01:57:03.233Z,95.35
2016-01-14T01:57:14.733Z,96.01
2016-01-14T01:57:26.202Z,95.91
2016-01-14T01:57:37.671Z,95.73
2016-01-14T01:57:49.127Z,95.63
2016-01-14T01:58:00.596Z,95.73
2016-01-14T01:58:12.033Z,95.73
2016-01-14T01:58:23.502Z,95.73
2016-01-14T01:58:34.971Z,95.91
2016-01-14T01:58:46.441Z,95.82
2016-01-14T01:58:57.926Z,95.44
2016-01-14T01:59:09.410Z,95.35
2016-01-14T01:59:20.895Z,95.35
2016-01-14T01:59:32.379Z,95.35
2016-01-14T01:59:43.832Z,96.1
2016-01-14T01:59:55.288Z,95.91
2016-01-14T02:00:06.741Z,95.73
2016-01-14T02:00:18.194Z,95.73
2016-01-14T02:00:29.663Z,95.63
2016-01-14T02:00:41.116Z,95.73
2016-01-14T02:00:52.587Z,95.35
2016-01-14T02:01:04.056Z,95.73
2016-01-14T02:01:15.540Z,95.73
2016-01-14T02:01:27.025Z,95.63
2016-01-14T02:01:38.493Z,95.73
2016-01-14T02:01:49.981Z,95.73
2016-01-14T02:02:01.434Z,95.73
2016-01-14T02:02:12.766Z,95.63
2016-01-14T02:02:23.911Z,95.91
2016-01-14T02:02:35.224Z,95.35
2016-01-14T02:02:46.396Z,95.73
2016-01-14T02:02:57.961Z,95.44
2016-01-14T02:03:09.680Z,95.35
2016-01-14T02:03:21.149Z,96.01
2016-01-14T02:03:32.618Z,95.73
2016-01-14T02:03:44.102Z,95.73
2016-01-14T02:03:55.589Z,95.73
2016-01-14T02:04:07.058Z,95.44
2016-01-14T02:04:18.574Z,95.73
2016-01-14T02:04:30.074Z,95.63
2016-01-14T02:04:41.527Z,95.73
2016-01-14T02:04:52.982Z,95.73
2016-01-14T02:05:04.451Z,95.73
2016-01-14T02:05:15.904Z,95.73
2016-01-14T02:05:27.373Z,95.73
2016-01-14T02:05:38.826Z,96.01
2016-01-14T02:05:50.329Z,95.73
2016-01-14T02:06:01.813Z,95.73
2016-01-14T02:06:13.282Z,96.01
2016-01-14T02:06:24.766Z,95.82
2016-01-14T02:06:36.251Z,95.73
2016-01-14T02:06:47.735Z,95.73
2016-01-14T02:06:59.035Z,95.91
2016-01-14T02:07:10.488Z,95.82
2016-01-14T02:07:21.957Z,96.01
2016-01-14T02:07:32.707Z,95.82
2016-01-14T02:07:44.160Z,95.73
2016-01-14T02:07:55.631Z,95.91
2016-01-14T02:08:07.084Z,95.73
2016-01-14T02:08:18.552Z,95.82
2016-01-14T02:08:30.021Z,96.01
2016-01-14T02:08:41.506Z,95.82
2016-01-14T02:08:53.009Z,96.01
2016-01-14T02:09:04.477Z,95.82
2016-01-14T02:09:15.962Z,95.82
2016-01-14T02:09:27.415Z,95.63
2016-01-14T02:09:38.868Z,95.63
2016-01-14T02:09:50.321Z,95.63
2016-01-14T02:10:01.793Z,95.91
2016-01-14T02:10:13.262Z,95.82
2016-01-14T02:10:24.746Z,95.63
2016-01-14T02:10:36.199Z,95.63
2016-01-14T02:10:47.668Z,95.63
2016-01-14T02:10:59.139Z,95.91
2016-01-14T02:11:10.623Z,95.63
2016-01-14T02:11:22.107Z,95.63
2016-01-14T02:11:33.607Z,95.63
2016-01-14T02:11:45.060Z,95.63
2016-01-14T02:11:56.532Z,95.44
2016-01-14T02:12:07.985Z,95.63
2016-01-14T02:12:19.454Z,95.63
2016-01-14T02:12:30.907Z,95.63
2016-01-14T02:12:42.392Z,95.63
2016-01-14T02:12:53.848Z,95.82
2016-01-14T02:13:05.316Z,95.54
2016-01-14T02:13:16.832Z,95.44
2016-01-14T02:13:28.301Z,95.63
2016-01-14T02:13:39.785Z,95.63
2016-01-14T02:13:51.285Z,95.44
2016-01-14T02:14:02.741Z,95.82
2016-01-14T02:14:14.210Z,95.73
2016-01-14T02:14:25.663Z,95.44
2016-01-14T02:14:37.132Z,95.54
2016-01-14T02:14:48.585Z,95.54
2016-01-14T02:15:00.056Z,95.73
2016-01-14T02:15:11.509Z,95.73
2016-01-14T02:15:22.978Z,95.73
2016-01-14T02:15:34.462Z,95.73
2016-01-14T02:15:45.243Z,95.54
2016-01-14T02:15:56.715Z,95.73
2016-01-14T02:16:08.215Z,95.63
2016-01-14T02:16:19.699Z,95.73
2016-01-14T02:16:31.153Z,95.82
2016-01-14T02:16:42.621Z,95.63
2016-01-14T02:16:54.074Z,95.73
2016-01-14T02:17:05.531Z,95.91
2016-01-14T02:17:16.999Z,95.91
2016-01-14T02:17:28.468Z,95.82
2016-01-14T02:17:39.921Z,95.73
2016-01-14T02:17:51.406Z,95.63
2016-01-14T02:18:02.877Z,95.82
2016-01-14T02:18:14.362Z,95.82
2016-01-14T02:18:25.846Z,95.63
2016-01-14T02:18:37.330Z,95.63
2016-01-14T02:18:48.627Z,95.82
2016-01-14T02:19:00.099Z,95.82
2016-01-14T02:19:11.552Z,95.82
2016-01-14T02:19:23.005Z,95.91
2016-01-14T02:19:34.490Z,96.39
2016-01-14T02:19:45.958Z,96.01
2016-01-14T02:19:57.429Z,96.39
2016-01-14T02:20:08.914Z,95.82
2016-01-14T02:20:20.382Z,95.82
2016-01-14T02:20:31.851Z,95.82
2016-01-14T02:20:43.351Z,95.73
2016-01-14T02:20:54.101Z,95.82
2016-01-14T02:21:05.573Z,95.82
2016-01-14T02:21:17.026Z,96.01
2016-01-14T02:21:28.495Z,96.1
2016-01-14T02:21:39.948Z,96.29
2016-01-14T02:21:51.401Z,95.91
2016-01-14T02:22:02.154Z,96.39
2016-01-14T02:22:13.623Z,96.2
2016-01-14T02:22:25.107Z,96.1
2016-01-14T02:22:36.607Z,96.1
2016-01-14T02:22:48.076Z,96.29
2016-01-14T02:22:59.531Z,96.2
2016-01-14T02:23:11.000Z,96.2
2016-01-14T02:23:22.437Z,96.1
2016-01-14T02:23:33.906Z,96.1
2016-01-14T02:23:45.359Z,96.2
2016-01-14T02:23:56.109Z,96.1
2016-01-14T02:24:07.581Z,96.2
2016-01-14T02:24:19.050Z,96.29
2016-01-14T02:24:30.518Z,96.29
2016-01-14T02:24:42.003Z,96.01
2016-01-14T02:24:53.487Z,96.39
2016-01-14T02:25:04.958Z,95.82
2016-01-14T02:25:16.473Z,95.82
2016-01-14T02:25:27.927Z,96.39
2016-01-14T02:25:39.223Z,96.01
2016-01-14T02:25:50.677Z,96.1
2016-01-14T02:26:02.133Z,95.82
2016-01-14T02:26:13.601Z,95.82
2016-01-14T02:26:25.070Z,96.2
2016-01-14T02:26:36.523Z,95.73
2016-01-14T02:26:47.992Z,95.82
2016-01-14T02:26:59.336Z,95.91
2016-01-14T02:27:10.808Z,95.91
2016-01-14T02:27:22.292Z,96.01
2016-01-14T02:27:33.745Z,96.2
2016-01-14T02:27:45.214Z,95.82
2016-01-14T02:27:56.683Z,96.01
2016-01-14T02:28:08.154Z,96.39
2016-01-14T02:28:18.904Z,95.82
2016-01-14T02:28:30.373Z,96.1
2016-01-14T02:28:41.826Z,95.82